createdAt,value
2023-02-11T00:00:34.405Z,41.67
2023-02-11T00:01:37.317Z,39.28
2023-02-11T00:02:39.573Z,43.05
2023-02-11T00:03:42.020Z,39.05
2023-02-11T00:04:44.255Z,43.55
2023-02-11T00:05:46.766Z,41.60
2023-02-11T00:06:48.930Z,38.50
2023-02-11T00:07:51.290Z,39.03
2023-02-11T00:08:54.252Z,42.10
2023-02-11T00:09:56.769Z,39.53
2023-02-11T00:10:59.163Z,40.55
2023-02-11T00:12:01.370Z,40.60
2023-02-11T00:13:03.576Z,38.85
2023-02-11T00:14:08.392Z,46.72
2023-02-11T00:15:11.500Z,41.85
2023-02-11T00:16:16.525Z,42.63
2023-02-11T00:17:18.716Z,43.90
2023-02-11T00:18:20.943Z,51.10
2023-02-11T00:19:23.151Z,42.28
2023-02-11T00:20:25.326Z,45.03
2023-02-11T00:21:27.936Z,49.00
2023-02-11T00:22:31.893Z,45.08
2023-02-11T00:23:34.480Z,40.10
2023-02-11T00:24:37.088Z,42.08
2023-02-11T00:25:44.816Z,42.08
2023-02-11T00:26:47.215Z,46.58
2023-02-11T00:27:49.400Z,43.05
2023-02-11T00:28:52.738Z,40.80
2023-02-11T00:29:55.028Z,40.03
2023-02-11T00:30:58.324Z,43.58
2023-02-11T00:32:05.225Z,42.55
2023-02-11T00:33:07.561Z,39.33
2023-02-11T00:34:09.768Z,42.42
2023-02-11T00:35:12.069Z,45.53
2023-02-11T00:36:20.739Z,42.60
2023-02-11T00:37:22.922Z,43.63
2023-02-11T00:38:25.279Z,44.00
2023-02-11T00:39:27.580Z,45.50
2023-02-11T00:40:29.797Z,47.67
2023-02-11T00:41:32.659Z,42.17
2023-02-11T00:42:35.715Z,48.53
2023-02-11T00:43:38.098Z,42.88
2023-02-11T00:44:40.448Z,43.58
2023-02-11T00:45:42.665Z,42.50
2023-02-11T00:46:44.920Z,43.63
2023-02-11T00:47:47.198Z,44.22
2023-02-11T00:48:51.653Z,46.17
2023-02-11T00:49:57.221Z,42.65
2023-02-11T00:50:59.491Z,44.30
2023-02-11T00:52:01.706Z,43.03
2023-02-11T00:53:03.950Z,44.90
2023-02-11T00:54:06.368Z,47.70
2023-02-11T00:55:09.169Z,44.22
2023-02-11T00:56:11.411Z,40.13
2023-02-11T00:57:13.601Z,44.55
2023-02-11T00:58:15.767Z,46.60
2023-02-11T00:59:17.938Z,45.00
2023-02-11T01:00:20.696Z,41.85
2023-02-11T01:01:23.261Z,45.78
2023-02-11T01:02:25.589Z,47.85
2023-02-11T01:03:27.859Z,44.63
2023-02-11T01:04:30.980Z,46.00
2023-02-11T01:05:33.475Z,43.80
2023-02-11T01:06:35.665Z,40.58
2023-02-11T01:07:38.067Z,46.25
2023-02-11T01:08:40.439Z,43.25
2023-02-11T01:09:43.921Z,42.33
2023-02-11T01:10:53.200Z,43.47
2023-02-11T01:11:55.400Z,41.17
2023-02-11T01:12:57.616Z,42.20
2023-02-11T01:14:01.428Z,45.03
2023-02-11T01:15:05.380Z,42.42
2023-02-11T01:16:10.073Z,42.30
2023-02-11T01:17:12.470Z,39.53
2023-02-11T01:18:14.803Z,41.88
2023-02-11T01:19:17.164Z,43.65
2023-02-11T01:20:24.738Z,37.90
2023-02-11T01:21:26.951Z,41.13
2023-02-11T01:22:29.130Z,42.88
2023-02-11T01:23:31.446Z,46.20
2023-02-11T01:24:33.809Z,45.40
2023-02-11T01:25:36.335Z,41.63
2023-02-11T01:26:39.395Z,45.58
2023-02-11T01:27:41.798Z,35.85
2023-02-11T01:28:44.404Z,42.00
2023-02-11T01:29:46.840Z,41.78
2023-02-11T01:30:49.661Z,42.22
2023-02-11T01:31:52.477Z,43.35
2023-02-11T01:32:54.909Z,42.55
2023-02-11T01:33:57.106Z,44.90
2023-02-11T01:34:59.829Z,40.65
2023-02-11T01:36:04.249Z,40.75
2023-02-11T01:37:07.267Z,41.00
2023-02-11T01:38:16.602Z,41.60
2023-02-11T01:39:18.797Z,40.70
2023-02-11T01:40:22.092Z,41.80
2023-02-11T01:41:24.510Z,39.80
2023-02-11T01:42:26.716Z,43.88
2023-02-11T01:43:32.709Z,43.85
2023-02-11T01:44:38.184Z,42.80
2023-02-11T01:45:47.245Z,43.38
2023-02-11T01:46:49.519Z,42.60
2023-02-11T01:47:54.653Z,41.40
2023-02-11T01:49:08.936Z,41.50
2023-02-11T01:50:11.393Z,39.35
2023-02-11T01:51:18.691Z,41.83
2023-02-11T01:52:31.582Z,37.83
2023-02-11T01:53:54.435Z,39.35
2023-02-11T01:55:19.375Z,37.78
2023-02-11T01:56:43.039Z,45.75
2023-02-11T01:57:51.275Z,38.63
2023-02-11T01:58:59.453Z,36.65
2023-02-11T02:00:25.640Z,44.10
2023-02-11T02:01:31.990Z,40.83
2023-02-11T02:02:49.366Z,38.20
2023-02-11T02:04:00.104Z,38.38
2023-02-11T02:05:29.752Z,40.08
2023-02-11T02:06:37.681Z,38.17
2023-02-11T02:07:56.687Z,35.47
2023-02-11T02:09:17.144Z,38.83
2023-02-11T02:10:22.678Z,37.33
2023-02-11T02:11:26.305Z,39.92
2023-02-11T02:12:28.679Z,40.95
2023-02-11T02:13:32.869Z,38.70
2023-02-11T02:14:39.416Z,42.63
2023-02-11T02:15:49.780Z,39.95
2023-02-11T02:16:52.229Z,39.25
2023-02-11T02:18:18.002Z,38.20
2023-02-11T02:19:45.924Z,42.15
2023-02-11T02:21:07.744Z,39.05
2023-02-11T02:22:14.282Z,36.30
2023-02-11T02:23:54.060Z,42.13
2023-02-11T02:25:31.207Z,38.38
2023-02-11T02:27:08.477Z,39.85
2023-02-11T02:28:35.970Z,41.38
2023-02-11T02:29:55.984Z,35.65
2023-02-11T02:31:11.470Z,37.87
2023-02-11T02:32:35.256Z,36.13
2023-02-11T02:34:00.604Z,35.92
2023-02-11T02:35:22.926Z,37.35
2023-02-11T02:36:55.823Z,36.42
2023-02-11T02:38:08.590Z,37.42
2023-02-11T02:39:33.735Z,40.28
2023-02-11T02:40:51.000Z,37.45
2023-02-11T02:41:55.289Z,34.65
2023-02-11T02:42:59.694Z,37.25
2023-02-11T02:44:02.467Z,38.97
2023-02-11T02:45:05.162Z,41.53
2023-02-11T02:46:30.242Z,38.70
2023-02-11T02:47:32.480Z,36.67
2023-02-11T02:48:38.829Z,37.35
2023-02-11T02:49:41.123Z,36.25
2023-02-11T02:50:43.949Z,39.35
2023-02-11T02:52:15.710Z,36.63
2023-02-11T02:53:21.920Z,35.20
2023-02-11T02:55:01.777Z,34.78
2023-02-11T02:56:18.573Z,33.42
2023-02-11T02:57:38.892Z,35.80
2023-02-11T02:58:47.390Z,35.60
2023-02-11T03:00:14.368Z,33.00
2023-02-11T03:01:35.753Z,38.08
2023-02-11T03:03:15.185Z,37.63
2023-02-11T03:04:47.702Z,33.05
2023-02-11T03:06:08.879Z,34.30
2023-02-11T03:07:55.373Z,32.88
2023-02-11T03:09:06.069Z,35.05
2023-02-11T03:10:13.790Z,39.13
2023-02-11T03:11:19.090Z,38.75
2023-02-11T03:12:23.073Z,34.75
2023-02-11T03:13:32.189Z,39.97
2023-02-11T03:14:36.188Z,38.22
2023-02-11T03:15:43.713Z,34.60
2023-02-11T03:16:48.452Z,34.17
2023-02-11T03:17:55.473Z,34.63
2023-02-11T03:19:06.296Z,39.05
2023-02-11T03:21:16.519Z,35.67
2023-02-11T03:22:35.158Z,36.97
2023-02-11T03:23:47.316Z,36.97
2023-02-11T03:24:49.873Z,35.50
2023-02-11T03:25:57.826Z,38.58
2023-02-11T03:27:24.347Z,39.72
2023-02-11T03:28:34.340Z,34.00
2023-02-11T03:29:42.515Z,37.88
2023-02-11T03:31:08.951Z,32.95
2023-02-11T03:32:19.513Z,34.38
2023-02-11T03:33:35.119Z,36.38
2023-02-11T03:34:55.557Z,31.77
2023-02-11T03:36:03.464Z,37.92
2023-02-11T03:37:39.801Z,32.38
2023-02-11T03:38:52.013Z,30.25
2023-02-11T03:40:00.143Z,33.47
2023-02-11T03:41:06.898Z,33.60
2023-02-11T03:42:12.159Z,40.28
2023-02-11T03:43:26.105Z,35.95
2023-02-11T03:44:34.768Z,34.05
2023-02-11T03:45:39.271Z,34.75
2023-02-11T03:46:47.914Z,33.50
2023-02-11T03:48:14.584Z,35.83
2023-02-11T03:49:21.700Z,36.22
2023-02-11T03:50:26.514Z,32.90
2023-02-11T03:51:30.994Z,35.50
2023-02-11T03:52:35.271Z,34.83
2023-02-11T03:53:40.810Z,32.65
2023-02-11T03:54:46.472Z,39.00
2023-02-11T03:55:51.405Z,37.13
2023-02-11T03:56:57.168Z,35.30
2023-02-11T03:57:59.378Z,41.08
2023-02-11T03:59:01.710Z,35.28
2023-02-11T04:00:05.355Z,37.17
2023-02-11T04:01:13.947Z,38.72
2023-02-11T04:02:16.233Z,35.17
2023-02-11T04:03:19.166Z,33.25
2023-02-11T04:04:21.454Z,34.42
2023-02-11T04:05:23.810Z,41.55
2023-02-11T04:06:26.314Z,35.88
2023-02-11T04:07:28.872Z,36.25
2023-02-11T04:08:31.976Z,35.03
2023-02-11T04:09:35.335Z,38.40
2023-02-11T04:10:37.806Z,41.35
2023-02-11T04:11:40.179Z,36.47
2023-02-11T04:12:42.444Z,39.78
2023-02-11T04:13:44.795Z,36.75
2023-02-11T04:14:47.091Z,34.38
2023-02-11T04:15:49.340Z,39.75
2023-02-11T04:16:51.905Z,33.13
2023-02-11T04:17:54.077Z,40.97
2023-02-11T04:18:57.176Z,36.75
2023-02-11T04:19:59.384Z,36.05
2023-02-11T04:21:01.702Z,36.50
2023-02-11T04:22:04.349Z,37.90
2023-02-11T04:23:06.706Z,34.75
2023-02-11T04:24:08.889Z,35.30
2023-02-11T04:25:11.313Z,37.85
2023-02-11T04:26:13.692Z,39.90
2023-02-11T04:27:16.154Z,39.42
2023-02-11T04:28:18.434Z,39.83
2023-02-11T04:29:20.897Z,34.90
2023-02-11T04:30:23.111Z,41.05
2023-02-11T04:31:25.693Z,38.80
2023-02-11T04:32:28.261Z,36.10
2023-02-11T04:33:30.510Z,37.28
2023-02-11T04:34:32.869Z,36.70
2023-02-11T04:35:35.253Z,36.22
2023-02-11T04:36:37.659Z,36.33
2023-02-11T04:37:39.907Z,37.78
2023-02-11T04:38:42.091Z,36.55
2023-02-11T04:39:44.282Z,36.47
2023-02-11T04:40:46.653Z,38.10
2023-02-11T04:41:49.079Z,37.92
2023-02-11T04:42:51.284Z,39.83
2023-02-11T04:43:53.697Z,45.55
2023-02-11T04:44:55.943Z,37.72
2023-02-11T04:45:58.908Z,36.67
2023-02-11T04:47:01.649Z,37.40
2023-02-11T04:48:04.335Z,42.13
2023-02-11T04:49:06.704Z,38.42
2023-02-11T04:50:09.111Z,45.05
2023-02-11T04:51:11.709Z,37.25
2023-02-11T04:52:14.551Z,38.17
2023-02-11T04:53:16.715Z,37.17
2023-02-11T04:54:20.011Z,42.63
2023-02-11T04:55:22.269Z,38.65
2023-02-11T04:56:24.498Z,42.28
2023-02-11T04:57:27.060Z,39.45
2023-02-11T04:58:29.423Z,39.15
2023-02-11T04:59:31.891Z,39.85
2023-02-11T05:00:34.061Z,37.97
2023-02-11T05:01:36.324Z,40.83
2023-02-11T05:02:38.991Z,39.50
2023-02-11T05:03:42.446Z,46.15
2023-02-11T05:04:44.681Z,40.42
2023-02-11T05:05:47.155Z,44.25
2023-02-11T05:06:50.644Z,41.40
2023-02-11T05:07:53.206Z,40.92
2023-02-11T05:08:55.395Z,40.85
2023-02-11T05:09:57.602Z,41.03
2023-02-11T05:11:02.106Z,43.25
2023-02-11T05:12:05.003Z,41.38
2023-02-11T05:13:07.358Z,43.75
2023-02-11T05:14:09.564Z,43.33
2023-02-11T05:15:11.748Z,42.00
2023-02-11T05:16:14.869Z,40.22
2023-02-11T05:17:17.139Z,47.42
2023-02-11T05:18:19.514Z,38.33
2023-02-11T05:19:21.819Z,42.80
2023-02-11T05:20:24.026Z,47.38
2023-02-11T05:21:26.412Z,40.97
2023-02-11T05:22:28.807Z,46.58
2023-02-11T05:23:30.978Z,42.03
2023-02-11T05:24:33.819Z,46.28
2023-02-11T05:25:36.119Z,41.20
2023-02-11T05:26:38.323Z,44.85
2023-02-11T05:27:40.921Z,44.67
2023-02-11T05:28:43.984Z,44.90
2023-02-11T05:29:46.369Z,41.28
2023-02-11T05:30:48.613Z,42.80
2023-02-11T05:31:50.803Z,42.85
2023-02-11T05:32:53.392Z,41.30
2023-02-11T05:33:55.647Z,45.28
2023-02-11T05:34:58.083Z,45.10
2023-02-11T05:36:01.976Z,44.53
2023-02-11T05:37:04.233Z,44.97
2023-02-11T05:38:06.874Z,50.15
2023-02-11T05:39:09.040Z,46.67
2023-02-11T05:40:11.728Z,46.47
2023-02-11T05:41:14.211Z,46.63
2023-02-11T05:42:16.382Z,46.22
2023-02-11T05:43:19.021Z,42.47
2023-02-11T05:44:21.249Z,45.35
2023-02-11T05:45:23.416Z,45.65
2023-02-11T05:46:25.851Z,48.47
2023-02-11T05:47:28.236Z,43.65
2023-02-11T05:48:31.217Z,45.08
2023-02-11T05:49:33.430Z,47.17
2023-02-11T05:50:35.747Z,52.33
2023-02-11T05:51:39.944Z,50.00
2023-02-11T05:52:42.128Z,48.60
2023-02-11T05:53:44.714Z,51.42
2023-02-11T05:54:47.082Z,45.28
2023-02-11T05:55:49.560Z,47.15
2023-02-11T05:56:52.241Z,49.53
2023-02-11T05:57:54.452Z,49.25
2023-02-11T05:58:59.354Z,45.47
2023-02-11T06:00:01.937Z,52.22
2023-02-11T06:01:14.522Z,46.20
2023-02-11T06:02:16.984Z,46.90
2023-02-11T06:03:19.459Z,50.30
2023-02-11T06:04:21.953Z,47.28
2023-02-11T06:05:24.360Z,48.35
2023-02-11T06:06:26.778Z,43.85
2023-02-11T06:07:28.965Z,44.92
2023-02-11T06:08:31.528Z,48.22
2023-02-11T06:09:33.756Z,54.15
2023-02-11T06:10:36.637Z,52.83
2023-02-11T06:11:38.817Z,52.10
2023-02-11T06:12:41.017Z,43.85
2023-02-11T06:13:43.782Z,46.22
2023-02-11T06:14:46.016Z,45.40
2023-02-11T06:16:02.377Z,46.67
2023-02-11T06:17:04.655Z,45.35
2023-02-11T06:18:08.016Z,45.47
2023-02-11T06:19:11.012Z,43.30
2023-02-11T06:20:13.488Z,46.83
2023-02-11T06:21:15.921Z,47.50
2023-02-11T06:22:18.119Z,53.33
2023-02-11T06:23:20.374Z,45.50
2023-02-11T06:24:44.290Z,45.72
2023-02-11T06:25:45.823Z,46.70
2023-02-11T06:26:48.202Z,46.55
2023-02-11T06:27:50.370Z,43.63
2023-02-11T06:28:52.772Z,46.80
2023-02-11T06:29:55.070Z,43.65
2023-02-11T06:30:58.185Z,42.80
2023-02-11T06:32:00.725Z,43.80
2023-02-11T06:33:03.340Z,46.83
2023-02-11T06:34:06.024Z,40.63
2023-02-11T06:35:10.743Z,42.95
2023-02-11T06:36:19.689Z,45.95
2023-02-11T06:37:21.956Z,45.75
2023-02-11T06:38:24.342Z,47.15
2023-02-11T06:39:26.534Z,49.13
2023-02-11T06:40:28.838Z,45.78
2023-02-11T06:41:31.337Z,48.33
2023-02-11T06:42:34.580Z,46.40
2023-02-11T06:43:37.179Z,47.22
2023-02-11T06:44:39.578Z,45.88
2023-02-11T06:45:41.763Z,53.75
2023-02-11T06:46:44.016Z,51.33
2023-02-11T06:47:46.207Z,44.72
2023-02-11T06:48:48.958Z,44.72
2023-02-11T06:49:51.313Z,47.10
2023-02-11T06:50:53.517Z,43.67
2023-02-11T06:51:55.940Z,48.85
2023-02-11T06:52:59.874Z,45.35
2023-02-11T06:54:02.402Z,44.63
2023-02-11T06:55:05.384Z,47.72
2023-02-11T06:56:10.783Z,47.40
2023-02-11T06:57:13.147Z,44.42
2023-02-11T06:58:15.528Z,41.55
2023-02-11T06:59:20.724Z,44.60
2023-02-11T07:00:23.256Z,49.70
2023-02-11T07:01:27.458Z,45.67
2023-02-11T07:02:30.059Z,45.33
2023-02-11T07:03:36.621Z,44.53
2023-02-11T07:04:39.174Z,46.85
2023-02-11T07:05:44.548Z,46.53
2023-02-11T07:06:46.758Z,45.72
2023-02-11T07:07:49.224Z,47.95
2023-02-11T07:08:51.434Z,49.28
2023-02-11T07:09:54.077Z,43.05
2023-02-11T07:10:56.302Z,42.55
2023-02-11T07:11:58.499Z,45.00
2023-02-11T07:13:00.960Z,48.67
2023-02-11T07:14:10.674Z,45.97
2023-02-11T07:15:12.884Z,47.90
2023-02-11T07:16:17.100Z,44.53
2023-02-11T07:17:19.342Z,50.65
2023-02-11T07:18:21.730Z,47.40
2023-02-11T07:19:24.046Z,48.13
2023-02-11T07:20:26.701Z,46.90
2023-02-11T07:21:29.031Z,53.15
2023-02-11T07:22:31.275Z,52.20
2023-02-11T07:23:34.302Z,47.15
2023-02-11T07:24:36.688Z,47.92
2023-02-11T07:25:39.058Z,46.92
2023-02-11T07:26:41.352Z,48.95
2023-02-11T07:27:43.635Z,46.25
2023-02-11T07:28:46.106Z,48.30
2023-02-11T07:29:48.728Z,45.08
2023-02-11T07:30:51.116Z,48.60
2023-02-11T07:31:53.382Z,49.13
2023-02-11T07:32:56.702Z,50.35
2023-02-11T07:34:01.376Z,48.15
2023-02-11T07:35:04.301Z,48.53
2023-02-11T07:36:08.746Z,51.13
2023-02-11T07:37:11.029Z,48.15
2023-02-11T07:38:13.215Z,47.15
2023-02-11T07:39:15.579Z,54.45
2023-02-11T07:40:18.026Z,50.67
2023-02-11T07:41:22.684Z,51.88
2023-02-11T07:42:24.876Z,45.80
2023-02-11T07:43:27.847Z,51.92
2023-02-11T07:44:30.067Z,47.38
2023-02-11T07:45:32.607Z,46.08
2023-02-11T07:46:35.843Z,56.08
2023-02-11T07:47:38.891Z,49.00
2023-02-11T07:48:41.286Z,54.50
2023-02-11T07:49:43.554Z,48.80
2023-02-11T07:50:45.960Z,44.45
2023-02-11T07:51:49.224Z,46.80
2023-02-11T07:52:51.409Z,50.38
2023-02-11T07:53:55.453Z,50.10
2023-02-11T07:54:57.622Z,51.38
2023-02-11T07:55:59.836Z,47.97
2023-02-11T07:57:02.070Z,49.13
2023-02-11T07:58:04.330Z,48.88
2023-02-11T07:59:06.491Z,46.92
2023-02-11T08:00:09.473Z,47.15
2023-02-11T08:01:19.496Z,49.08
2023-02-11T08:02:21.811Z,46.53
2023-02-11T08:03:23.999Z,46.28
2023-02-11T08:04:26.390Z,52.67
2023-02-11T08:05:30.408Z,49.13
2023-02-11T08:06:34.420Z,49.95
2023-02-11T08:07:36.794Z,47.38
2023-02-11T08:08:39.675Z,46.97
2023-02-11T08:09:41.965Z,46.50
2023-02-11T08:10:44.179Z,46.42
2023-02-11T08:11:46.582Z,44.17
2023-02-11T08:12:48.787Z,45.53
2023-02-11T08:13:51.860Z,44.95
2023-02-11T08:14:54.068Z,43.35
2023-02-11T08:15:57.833Z,45.80
2023-02-11T08:17:00.074Z,45.67
2023-02-11T08:18:02.293Z,44.42
2023-02-11T08:19:12.481Z,40.90
2023-02-11T08:20:14.678Z,44.03
2023-02-11T08:21:17.248Z,41.40
2023-02-11T08:22:19.739Z,46.38
2023-02-11T08:23:22.299Z,45.08
2023-02-11T08:24:24.498Z,41.28
2023-02-11T08:25:26.900Z,42.60
2023-02-11T08:26:32.066Z,42.25
2023-02-11T08:27:34.525Z,47.15
2023-02-11T08:28:41.530Z,47.38
2023-02-11T08:29:43.911Z,45.78
2023-02-11T08:30:46.132Z,42.25
2023-02-11T08:31:49.073Z,45.75
2023-02-11T08:32:51.441Z,46.72
2023-02-11T08:33:54.949Z,44.65
2023-02-11T08:34:57.351Z,50.20
2023-02-11T08:36:00.113Z,45.47
2023-02-11T08:37:02.481Z,45.97
2023-02-11T08:38:04.688Z,44.10
2023-02-11T08:39:19.186Z,45.25
2023-02-11T08:40:22.094Z,41.53
2023-02-11T08:41:24.267Z,37.63
2023-02-11T08:42:26.450Z,42.90
2023-02-11T08:43:29.066Z,45.22
2023-02-11T08:44:31.280Z,39.83
2023-02-11T08:45:33.734Z,41.35
2023-02-11T08:46:36.254Z,41.88
2023-02-11T08:47:39.868Z,42.40
2023-02-11T08:48:42.829Z,45.13
2023-02-11T08:49:45.135Z,40.47
2023-02-11T08:50:47.362Z,46.40
2023-02-11T08:51:50.328Z,38.47
2023-02-11T08:52:52.929Z,41.05
2023-02-11T08:53:55.984Z,45.80
2023-02-11T08:54:58.851Z,39.70
2023-02-11T08:56:01.323Z,44.63
2023-02-11T08:57:04.389Z,45.35
2023-02-11T08:58:06.825Z,43.08
2023-02-11T08:59:12.648Z,38.75
2023-02-11T09:00:17.116Z,40.97
2023-02-11T09:01:23.361Z,44.05
2023-02-11T09:02:26.242Z,39.03
2023-02-11T09:03:29.718Z,41.17
2023-02-11T09:04:31.994Z,38.28
2023-02-11T09:05:34.332Z,41.15
2023-02-11T09:06:36.591Z,41.53
2023-02-11T09:07:39.385Z,43.28
2023-02-11T09:08:46.435Z,45.10
2023-02-11T09:09:48.803Z,45.30
2023-02-11T09:10:51.598Z,38.50
2023-02-11T09:11:57.239Z,41.13
2023-02-11T09:12:59.878Z,38.80
2023-02-11T09:14:04.575Z,39.10
2023-02-11T09:15:07.242Z,42.53
2023-02-11T09:16:17.511Z,39.47
2023-02-11T09:17:19.785Z,40.90
2023-02-11T09:18:22.636Z,41.20
2023-02-11T09:19:24.919Z,44.78
2023-02-11T09:20:27.758Z,41.85
2023-02-11T09:21:30.928Z,45.33
2023-02-11T09:22:33.216Z,37.95
2023-02-11T09:23:36.401Z,39.85
2023-02-11T09:24:38.740Z,41.17
2023-02-11T09:25:41.368Z,40.45
2023-02-11T09:26:43.893Z,45.55
2023-02-11T09:27:46.360Z,36.50
2023-02-11T09:28:49.227Z,40.80
2023-02-11T09:29:51.774Z,38.08
2023-02-11T09:30:54.634Z,40.33
2023-02-11T09:31:57.700Z,37.25
2023-02-11T09:33:00.305Z,39.92
2023-02-11T09:34:06.124Z,37.22
2023-02-11T09:35:08.487Z,41.35
2023-02-11T09:36:10.677Z,37.13
2023-02-11T09:37:12.941Z,35.90
2023-02-11T09:38:15.576Z,34.45
2023-02-11T09:39:20.497Z,37.60
2023-02-11T09:40:23.331Z,34.00
2023-02-11T09:41:25.487Z,35.30
2023-02-11T09:43:07.037Z,33.22
2023-02-11T09:44:18.827Z,38.90
2023-02-11T09:45:25.703Z,34.85
2023-02-11T09:46:35.803Z,30.50
2023-02-11T09:47:50.920Z,39.78
2023-02-11T09:48:55.766Z,34.28
2023-02-11T09:50:06.715Z,34.67
2023-02-11T09:51:20.822Z,35.08
2023-02-11T09:52:58.451Z,39.30
2023-02-11T09:54:25.879Z,36.35
2023-02-11T09:55:42.777Z,38.35
2023-02-11T09:56:45.246Z,37.08
2023-02-11T09:57:47.738Z,34.83
2023-02-11T09:58:50.140Z,33.60
2023-02-11T09:59:52.406Z,34.53
2023-02-11T10:01:26.644Z,35.38
2023-02-11T10:02:45.133Z,39.00
2023-02-11T10:04:02.943Z,32.83
2023-02-11T10:05:27.003Z,37.97
2023-02-11T10:07:07.646Z,34.85
2023-02-11T10:08:28.179Z,36.80
2023-02-11T10:09:45.443Z,37.75
2023-02-11T10:10:58.465Z,38.95
2023-02-11T10:12:38.300Z,40.42
2023-02-11T10:13:54.281Z,34.72
2023-02-11T10:15:27.507Z,35.70
2023-02-11T10:16:55.727Z,37.75
2023-02-11T10:18:45.632Z,34.53
2023-02-11T10:20:30.004Z,36.58
2023-02-11T10:22:03.736Z,32.80
2023-02-11T10:23:29.557Z,34.17
2023-02-11T10:24:33.429Z,42.60
2023-02-11T10:25:47.503Z,39.75
2023-02-11T10:26:52.090Z,32.20
2023-02-11T10:27:58.058Z,32.20
2023-02-11T10:29:06.988Z,33.75
2023-02-11T10:30:36.333Z,32.70
2023-02-11T10:31:43.367Z,32.22
2023-02-11T10:32:51.495Z,39.45
2023-02-11T10:34:03.560Z,31.73
2023-02-11T10:35:15.540Z,34.08
2023-02-11T10:36:19.988Z,32.40
2023-02-11T10:37:22.285Z,37.03
2023-02-11T10:38:27.921Z,34.67
2023-02-11T10:39:31.869Z,33.75
2023-02-11T10:40:34.397Z,33.22
2023-02-11T10:41:45.771Z,34.67
2023-02-11T10:42:53.699Z,32.13
2023-02-11T10:44:00.594Z,33.70
2023-02-11T10:45:07.464Z,32.00
2023-02-11T10:46:17.683Z,33.28
2023-02-11T10:48:45.287Z,36.20
2023-02-11T10:49:48.175Z,29.85
2023-02-11T10:50:50.813Z,34.55
2023-02-11T10:52:28.530Z,32.78
2023-02-11T10:53:30.795Z,32.47
2023-02-11T10:54:33.086Z,32.80
2023-02-11T10:55:36.481Z,29.52
2023-02-11T10:56:52.208Z,36.17
2023-02-11T10:57:58.865Z,36.03
2023-02-11T10:59:10.130Z,32.22
2023-02-11T11:00:18.366Z,32.75
2023-02-11T11:01:24.633Z,34.92
2023-02-11T11:02:34.354Z,33.08
2023-02-11T11:03:46.916Z,33.67
2023-02-11T11:04:49.503Z,32.38
2023-02-11T11:06:00.990Z,33.65
2023-02-11T11:07:21.467Z,32.35
2023-02-11T11:08:47.751Z,34.20
2023-02-11T11:10:04.402Z,31.70
2023-02-11T11:11:09.968Z,30.92
2023-02-11T11:12:30.936Z,31.27
2023-02-11T11:14:36.762Z,31.38
2023-02-11T11:15:39.061Z,32.95
2023-02-11T11:16:54.177Z,33.83
2023-02-11T11:18:22.594Z,32.05
2023-02-11T11:19:25.964Z,33.45
2023-02-11T11:20:35.533Z,35.90
2023-02-11T11:21:47.324Z,30.60
2023-02-11T11:22:52.695Z,36.95
2023-02-11T11:23:56.556Z,29.50
2023-02-11T11:25:01.610Z,35.47
2023-02-11T11:26:05.999Z,32.33
2023-02-11T11:27:18.822Z,35.90
2023-02-11T11:28:26.891Z,33.08
2023-02-11T11:29:37.481Z,31.52
2023-02-11T11:30:42.993Z,34.58
2023-02-11T11:32:01.347Z,32.67
2023-02-11T11:33:04.011Z,35.17
2023-02-11T11:34:22.125Z,38.50
2023-02-11T11:35:30.370Z,32.10
2023-02-11T11:36:39.782Z,32.42
2023-02-11T11:37:42.134Z,34.67
2023-02-11T11:38:57.978Z,36.05
2023-02-11T11:40:10.086Z,38.50
2023-02-11T11:41:20.003Z,31.55
2023-02-11T11:42:30.241Z,34.80
2023-02-11T11:43:32.782Z,36.10
2023-02-11T11:44:39.974Z,30.15
2023-02-11T11:45:56.714Z,33.70
2023-02-11T11:47:11.395Z,33.15
2023-02-11T11:48:25.370Z,32.33
2023-02-11T11:49:35.504Z,30.58
2023-02-11T11:50:48.653Z,36.28
2023-02-11T11:52:14.135Z,33.80
2023-02-11T11:53:37.393Z,33.50
2023-02-11T11:54:43.625Z,31.42
2023-02-11T11:55:57.896Z,30.45
2023-02-11T11:57:11.239Z,32.72
2023-02-11T11:58:17.353Z,30.55
2023-02-11T11:59:20.444Z,29.00
2023-02-11T12:00:36.574Z,34.00
2023-02-11T12:02:08.521Z,30.10
2023-02-11T12:03:32.493Z,32.50
2023-02-11T12:04:50.905Z,28.70
2023-02-11T12:06:04.462Z,32.33
2023-02-11T12:07:40.554Z,28.77
2023-02-11T12:09:08.774Z,31.67
2023-02-11T12:10:31.049Z,36.92
2023-02-11T12:11:34.126Z,33.47
2023-02-11T12:12:54.627Z,34.38
2023-02-11T12:14:30.568Z,34.05
2023-02-11T12:15:50.961Z,32.60
2023-02-11T12:17:37.049Z,33.42
2023-02-11T12:19:16.813Z,36.03
2023-02-11T12:20:55.691Z,33.78
2023-02-11T12:22:24.426Z,33.72
2023-02-11T12:23:58.366Z,30.70
2023-02-11T12:25:07.490Z,36.30
2023-02-11T12:26:23.480Z,33.92
2023-02-11T12:27:45.324Z,34.67
2023-02-11T12:29:25.735Z,35.58
2023-02-11T12:30:58.540Z,34.83
2023-02-11T12:32:16.125Z,31.27
2023-02-11T12:33:26.005Z,33.55
2023-02-11T12:34:50.132Z,35.85
2023-02-11T12:36:01.512Z,35.47
2023-02-11T12:37:22.193Z,32.10
2023-02-11T12:38:39.071Z,33.97
2023-02-11T12:39:51.908Z,35.05
2023-02-11T12:41:19.001Z,36.65
2023-02-11T12:43:02.559Z,37.45
2023-02-11T12:44:07.539Z,32.03
2023-02-11T12:45:12.764Z,32.80
2023-02-11T12:46:35.011Z,35.60
2023-02-11T12:47:55.630Z,32.90
2023-02-11T12:49:03.728Z,31.70
2023-02-11T12:50:30.232Z,36.22
2023-02-11T12:51:56.785Z,30.98
2023-02-11T12:53:20.631Z,34.38
2023-02-11T12:54:26.012Z,31.73
2023-02-11T12:55:37.240Z,31.65
2023-02-11T12:57:15.067Z,34.35
2023-02-11T12:58:29.607Z,36.28
2023-02-11T12:59:50.250Z,39.83
2023-02-11T13:00:57.075Z,39.60
2023-02-11T13:02:04.438Z,35.53
2023-02-11T13:03:09.696Z,39.38
2023-02-11T13:04:26.840Z,37.88
2023-02-11T13:05:32.081Z,37.75
2023-02-11T13:06:59.562Z,35.80
2023-02-11T13:08:14.711Z,34.75
2023-02-11T13:09:24.747Z,44.38
2023-02-11T13:10:35.177Z,39.53
2023-02-11T13:11:44.301Z,42.05
2023-02-11T13:13:09.109Z,38.97
2023-02-11T13:14:24.506Z,41.90
2023-02-11T13:15:27.109Z,44.25
2023-02-11T13:16:50.316Z,45.55
2023-02-11T13:18:10.448Z,39.65
2023-02-11T13:19:24.110Z,43.65
2023-02-11T13:20:40.316Z,46.65
2023-02-11T13:22:00.955Z,38.83
2023-02-11T13:23:20.969Z,38.05
2023-02-11T13:24:48.026Z,38.42
2023-02-11T13:26:17.891Z,37.28
2023-02-11T13:27:50.953Z,40.57
2023-02-11T13:29:05.622Z,37.33
2023-02-11T13:30:29.108Z,41.50
2023-02-11T13:31:32.029Z,41.55
2023-02-11T13:32:56.600Z,46.10
2023-02-11T13:33:59.035Z,40.35
2023-02-11T13:35:01.459Z,48.75
2023-02-11T13:36:04.840Z,42.08
2023-02-11T13:37:22.093Z,44.88
2023-02-11T13:38:30.058Z,43.85
2023-02-11T13:39:32.495Z,43.55
2023-02-11T13:40:39.470Z,47.28
2023-02-11T13:41:43.595Z,54.13
2023-02-11T13:42:57.722Z,40.83
2023-02-11T13:44:19.551Z,42.90
2023-02-11T13:45:47.801Z,44.88
2023-02-11T13:46:55.020Z,40.63
2023-02-11T13:47:59.692Z,44.20
2023-02-11T13:49:02.351Z,41.60
2023-02-11T13:50:08.563Z,41.42
2023-02-11T13:51:15.404Z,43.47
2023-02-11T13:52:28.887Z,42.60
2023-02-11T13:53:51.708Z,52.80
2023-02-11T13:54:57.106Z,41.35
2023-02-11T13:56:09.560Z,42.70
2023-02-11T13:57:20.771Z,48.15
2023-02-11T13:58:29.005Z,42.75
2023-02-11T13:59:32.978Z,42.13
2023-02-11T14:00:35.617Z,46.47
2023-02-11T14:02:18.409Z,47.30
2023-02-11T14:03:53.708Z,50.03
2023-02-11T14:05:23.584Z,46.67
2023-02-11T14:06:46.884Z,44.45
2023-02-11T14:08:26.113Z,41.83
2023-02-11T14:09:38.398Z,47.08
2023-02-11T14:10:43.530Z,47.10
2023-02-11T14:11:56.253Z,46.70
2023-02-11T14:13:29.736Z,41.03
2023-02-11T14:14:33.900Z,46.10
2023-02-11T14:15:40.714Z,39.53
2023-02-11T14:16:58.593Z,43.67
2023-02-11T14:18:00.960Z,39.20
2023-02-11T14:19:03.453Z,41.47
2023-02-11T14:20:36.741Z,44.58
2023-02-11T14:21:43.156Z,46.05
2023-02-11T14:22:50.762Z,52.92
2023-02-11T14:23:56.010Z,47.90
2023-02-11T14:25:02.201Z,40.08
2023-02-11T14:26:20.067Z,42.35
2023-02-11T14:27:31.445Z,45.85
2023-02-11T14:28:35.536Z,45.17
2023-02-11T14:29:51.009Z,50.28
2023-02-11T14:31:14.623Z,46.67
2023-02-11T14:32:22.764Z,57.80
2023-02-11T14:33:44.030Z,48.35
2023-02-11T14:35:22.633Z,45.88
2023-02-11T14:36:44.659Z,41.60
2023-02-11T14:38:01.822Z,43.15
2023-02-11T14:39:04.368Z,43.90
2023-02-11T14:40:18.526Z,49.63
2023-02-11T14:41:31.935Z,44.92
2023-02-11T14:42:38.350Z,45.80
2023-02-11T14:43:47.096Z,42.42